createdAt,value
2019-03-06T00:01:31.675Z,8.40
2019-03-06T00:04:00.998Z,6.73
2019-03-06T00:06:30.723Z,10.47
2019-03-06T00:09:00.214Z,7.47
2019-03-06T00:11:29.869Z,6.50
2019-03-06T00:13:59.222Z,8.07
2019-03-06T00:16:28.937Z,7.90
2019-03-06T00:18:58.620Z,7.47
2019-03-06T00:21:28.306Z,8.63
2019-03-06T00:23:58.258Z,7.93
2019-03-06T00:26:27.884Z,8.43
2019-03-06T00:28:57.658Z,7.43
2019-03-06T00:31:27.413Z,8.07
2019-03-06T00:33:56.959Z,8.27
2019-03-06T00:36:27.725Z,11.03
2019-03-06T00:38:57.262Z,8.40
2019-03-06T00:41:35.871Z,9.33
2019-03-06T00:44:05.573Z,7.13
2019-03-06T00:46:35.104Z,9.57
2019-03-06T00:49:04.475Z,8.10
2019-03-06T00:51:33.837Z,9.10
2019-03-06T00:54:03.224Z,10.53
2019-03-06T00:56:32.989Z,9.00
2019-03-06T00:59:02.857Z,11.07
2019-03-06T01:01:32.487Z,11.13
2019-03-06T01:04:02.260Z,9.73
2019-03-06T01:06:32.308Z,8.50
2019-03-06T01:09:01.695Z,10.70
2019-03-06T01:11:31.807Z,12.00
2019-03-06T01:14:01.153Z,14.50
2019-03-06T01:16:30.881Z,11.80
2019-03-06T01:19:00.933Z,12.40
2019-03-06T01:21:30.462Z,13.47
2019-03-06T01:24:00.611Z,9.80
2019-03-06T01:26:30.503Z,10.57
2019-03-06T01:28:59.895Z,12.90
2019-03-06T01:31:29.518Z,9.50
2019-03-06T01:34:21.198Z,10.13
2019-03-06T01:37:12.218Z,11.50
2019-03-06T01:39:59.461Z,9.63
2019-03-06T01:43:00.444Z,12.80
2019-03-06T01:45:30.125Z,10.07
2019-03-06T01:47:59.625Z,13.03
2019-03-06T01:50:29.675Z,10.13
2019-03-06T01:52:59.795Z,15.07
2019-03-06T01:55:29.146Z,12.70
2019-03-06T01:57:58.853Z,13.73
2019-03-06T02:00:28.690Z,17.03
2019-03-06T02:02:58.252Z,22.57
2019-03-06T02:05:28.685Z,19.40
2019-03-06T02:07:58.159Z,18.97
2019-03-06T02:10:27.883Z,17.17
2019-03-06T02:12:57.218Z,15.60
2019-03-06T02:15:26.884Z,21.53
2019-03-06T02:17:56.985Z,20.50
2019-03-06T02:20:26.733Z,35.20
2019-03-06T02:22:56.474Z,20.60
2019-03-06T02:25:25.985Z,29.47
2019-03-06T02:27:55.341Z,27.67
2019-03-06T02:30:25.112Z,37.40
2019-03-06T02:32:55.330Z,37.93
2019-03-06T02:35:25.546Z,29.47
2019-03-06T02:37:55.620Z,31.93
2019-03-06T02:40:25.754Z,31.70
2019-03-06T02:42:55.726Z,26.77
2019-03-06T02:45:25.065Z,32.17
2019-03-06T02:47:55.313Z,33.37
2019-03-06T02:50:25.239Z,29.73
2019-03-06T02:52:54.576Z,30.80
2019-03-06T02:55:24.733Z,35.77
2019-03-06T02:58:15.997Z,31.20
2019-03-06T03:01:10.764Z,33.73
2019-03-06T03:04:06.296Z,29.33
2019-03-06T03:06:42.824Z,25.90
2019-03-06T03:09:17.193Z,27.40
2019-03-06T03:11:47.019Z,25.67
2019-03-06T03:14:16.769Z,19.80
2019-03-06T03:16:46.776Z,21.93
2019-03-06T03:19:16.150Z,22.43
2019-03-06T03:21:45.873Z,24.20
2019-03-06T03:24:15.370Z,18.20
2019-03-06T03:26:46.208Z,21.97
2019-03-06T03:29:16.113Z,24.27
2019-03-06T03:31:45.542Z,29.97
2019-03-06T03:34:15.371Z,26.47
2019-03-06T03:36:44.831Z,29.50
2019-03-06T03:39:14.612Z,28.90
2019-03-06T03:41:44.191Z,26.70
2019-03-06T03:44:14.001Z,20.47
2019-03-06T03:47:02.651Z,22.13
2019-03-06T03:49:32.335Z,18.07
2019-03-06T03:52:02.353Z,17.80
2019-03-06T03:54:32.011Z,20.13
2019-03-06T03:57:01.726Z,26.53
2019-03-06T03:59:31.952Z,20.47
2019-03-06T04:02:01.573Z,24.93
2019-03-06T04:04:30.914Z,26.37
2019-03-06T04:07:00.751Z,24.47
2019-03-06T04:09:49.409Z,22.30
2019-03-06T04:12:19.828Z,21.30
2019-03-06T04:14:49.579Z,23.40
2019-03-06T04:17:19.473Z,21.77
2019-03-06T04:19:49.148Z,26.23
2019-03-06T04:22:18.561Z,21.77
2019-03-06T04:24:48.393Z,24.80
2019-03-06T04:27:18.216Z,32.10
2019-03-06T04:29:48.017Z,30.67
2019-03-06T04:32:17.898Z,29.17
2019-03-06T04:34:48.356Z,24.23
2019-03-06T04:37:17.728Z,29.47
2019-03-06T04:39:47.238Z,19.13
2019-03-06T04:42:17.350Z,26.07
2019-03-06T04:44:47.775Z,27.73
2019-03-06T04:47:17.598Z,27.57
2019-03-06T04:49:52.696Z,23.97
2019-03-06T04:52:19.275Z,29.73
2019-03-06T04:54:48.612Z,22.60
2019-03-06T04:57:18.384Z,29.60
2019-03-06T04:59:48.112Z,22.80
2019-03-06T05:02:18.406Z,20.93
2019-03-06T05:04:48.265Z,23.30
2019-03-06T05:07:17.702Z,22.90
2019-03-06T05:09:47.973Z,19.97
2019-03-06T05:12:17.693Z,21.80
2019-03-06T05:14:47.493Z,22.13
2019-03-06T05:17:54.934Z,21.77
2019-03-06T05:20:24.274Z,22.00
2019-03-06T05:22:54.507Z,17.63
2019-03-06T05:25:24.601Z,16.47
2019-03-06T05:27:54.073Z,18.50
2019-03-06T05:30:25.537Z,19.47
2019-03-06T05:32:55.330Z,16.13
2019-03-06T05:35:38.597Z,19.00
2019-03-06T05:38:30.040Z,19.63
2019-03-06T05:41:00.317Z,15.50
2019-03-06T05:43:30.845Z,13.10
2019-03-06T05:46:00.805Z,17.73
2019-03-06T05:48:30.632Z,15.80
2019-03-06T05:51:00.790Z,18.43
2019-03-06T05:53:30.477Z,13.70
2019-03-06T05:56:00.708Z,13.13
2019-03-06T05:58:31.169Z,12.73
2019-03-06T06:01:01.579Z,13.20
2019-03-06T06:03:31.876Z,17.03
2019-03-06T06:06:02.063Z,14.10
2019-03-06T06:08:31.901Z,12.47
2019-03-06T06:11:01.786Z,13.47
2019-03-06T06:13:31.442Z,13.07
2019-03-06T06:16:01.912Z,12.10
2019-03-06T06:18:31.976Z,14.97
2019-03-06T06:21:19.798Z,9.23
2019-03-06T06:23:53.642Z,13.50
2019-03-06T06:26:23.330Z,11.40
2019-03-06T06:28:54.099Z,12.33
2019-03-06T06:31:23.795Z,13.43
2019-03-06T06:33:54.548Z,12.37
2019-03-06T06:36:24.404Z,12.07
2019-03-06T06:38:53.896Z,12.20
2019-03-06T06:41:23.804Z,13.77
2019-03-06T06:43:54.141Z,10.63
2019-03-06T06:46:24.032Z,11.23
2019-03-06T06:48:53.999Z,12.17
2019-03-06T06:52:11.348Z,9.40
2019-03-06T06:55:33.402Z,8.93
2019-03-06T06:58:40.766Z,10.80
2019-03-06T07:02:11.485Z,9.47
2019-03-06T07:05:20.755Z,10.97
2019-03-06T07:08:07.886Z,9.93
2019-03-06T07:10:48.195Z,11.30
2019-03-06T07:13:33.337Z,10.93
2019-03-06T07:16:20.464Z,12.83
2019-03-06T07:19:15.335Z,11.73
2019-03-06T07:22:03.196Z,13.10
2019-03-06T07:24:51.070Z,11.87
2019-03-06T07:27:34.936Z,13.03
2019-03-06T07:30:22.622Z,12.23
2019-03-06T07:33:17.301Z,10.80
2019-03-06T07:36:07.223Z,9.30
2019-03-06T07:38:36.998Z,12.00
2019-03-06T07:41:25.664Z,10.27
2019-03-06T07:44:09.365Z,12.83
2019-03-06T07:46:50.536Z,11.13
2019-03-06T07:49:44.627Z,14.40
2019-03-06T07:52:29.698Z,10.40
2019-03-06T07:55:15.985Z,14.83
2019-03-06T07:58:21.560Z,10.63
2019-03-06T08:00:51.219Z,12.50
2019-03-06T08:03:26.277Z,11.70
2019-03-06T08:05:56.444Z,13.37
2019-03-06T08:08:27.132Z,12.33
2019-03-06T08:10:58.189Z,13.33
2019-03-06T08:13:35.490Z,11.37
2019-03-06T08:16:18.735Z,11.50
2019-03-06T08:19:13.242Z,11.67
2019-03-06T08:22:08.720Z,11.73
2019-03-06T08:24:53.431Z,11.53
2019-03-06T08:27:22.903Z,14.80
2019-03-06T08:29:52.321Z,10.90
2019-03-06T08:32:32.478Z,11.33
2019-03-06T08:35:02.277Z,11.20
2019-03-06T08:37:31.993Z,9.53
2019-03-06T08:40:01.434Z,10.33
2019-03-06T08:42:32.579Z,11.20
2019-03-06T08:45:02.107Z,11.73
2019-03-06T08:47:51.683Z,11.73
2019-03-06T08:50:40.032Z,12.03
2019-03-06T08:53:41.824Z,12.43
2019-03-06T08:56:18.025Z,10.17
2019-03-06T08:59:12.609Z,9.63
2019-03-06T09:02:01.252Z,10.27
2019-03-06T09:04:50.027Z,11.00
2019-03-06T09:07:37.284Z,11.20
2019-03-06T09:10:25.728Z,10.93
2019-03-06T09:13:10.700Z,17.37
2019-03-06T09:16:08.041Z,11.03
2019-03-06T09:18:55.436Z,11.50
2019-03-06T09:21:42.773Z,9.10
2019-03-06T09:24:31.045Z,12.17
2019-03-06T09:27:22.781Z,13.60
2019-03-06T09:30:15.605Z,10.60
2019-03-06T09:32:47.569Z,11.50
2019-03-06T09:35:31.674Z,10.60
2019-03-06T09:38:23.869Z,9.90
2019-03-06T09:41:18.206Z,13.33
2019-03-06T09:44:03.468Z,12.10
2019-03-06T09:46:39.368Z,12.10
2019-03-06T09:49:28.182Z,12.53
2019-03-06T09:52:26.260Z,12.43
2019-03-06T09:55:14.538Z,11.97
2019-03-06T09:58:06.329Z,13.13
2019-03-06T10:00:53.685Z,14.23
2019-03-06T10:03:41.412Z,12.17
2019-03-06T10:06:35.948Z,12.17
2019-03-06T10:09:16.744Z,11.00
2019-03-06T10:12:03.250Z,11.73
2019-03-06T10:14:49.535Z,12.90
2019-03-06T10:17:24.952Z,14.87
2019-03-06T10:20:01.506Z,12.20
2019-03-06T10:22:31.736Z,11.33
2019-03-06T10:25:01.763Z,12.40
2019-03-06T10:27:31.125Z,13.20
2019-03-06T10:30:01.345Z,12.17
2019-03-06T10:32:30.701Z,11.93
2019-03-06T10:35:00.823Z,10.30
2019-03-06T10:37:30.565Z,12.53
2019-03-06T10:40:00.362Z,13.40
2019-03-06T10:42:30.415Z,11.17
2019-03-06T10:45:00.546Z,12.30
2019-03-06T10:47:30.290Z,17.03
2019-03-06T10:49:59.630Z,10.53
2019-03-06T10:52:28.928Z,10.90
2019-03-06T10:54:58.506Z,9.47
2019-03-06T10:57:27.886Z,10.70
2019-03-06T10:59:57.357Z,11.27
2019-03-06T11:02:26.820Z,10.73
2019-03-06T11:04:59.752Z,8.20
2019-03-06T11:07:29.432Z,10.97
2019-03-06T11:09:58.969Z,9.40
2019-03-06T11:12:28.698Z,9.40
2019-03-06T11:14:58.409Z,9.13
2019-03-06T11:17:28.178Z,10.30
2019-03-06T11:19:58.079Z,9.77
2019-03-06T11:22:27.426Z,9.80
2019-03-06T11:24:57.201Z,9.20
2019-03-06T11:27:26.931Z,9.50
2019-03-06T11:29:56.601Z,8.10
2019-03-06T11:32:25.986Z,9.57
2019-03-06T11:34:55.748Z,8.70
2019-03-06T11:37:25.467Z,8.17
2019-03-06T11:39:54.848Z,9.27
2019-03-06T11:42:24.652Z,8.70
2019-03-06T11:44:54.264Z,7.10
2019-03-06T11:47:24.380Z,8.87
2019-03-06T11:49:53.870Z,8.37
2019-03-06T11:52:23.685Z,6.77
2019-03-06T11:54:53.204Z,6.93
2019-03-06T11:57:23.729Z,15.43
2019-03-06T11:59:53.725Z,7.00
2019-03-06T12:02:23.196Z,7.73
2019-03-06T12:04:53.304Z,6.57
2019-03-06T12:07:23.443Z,6.47
2019-03-06T12:10:12.015Z,14.17
2019-03-06T12:12:42.043Z,8.13
2019-03-06T12:15:12.095Z,6.40
2019-03-06T12:17:41.600Z,5.90
2019-03-06T12:20:11.335Z,8.50
2019-03-06T12:22:44.492Z,5.93
2019-03-06T12:25:14.008Z,7.30
2019-03-06T12:27:44.313Z,6.17
2019-03-06T12:30:13.988Z,5.97
2019-03-06T12:32:55.003Z,7.47
2019-03-06T12:35:24.349Z,5.93
2019-03-06T12:37:54.243Z,5.60
2019-03-06T12:40:24.454Z,6.00
2019-03-06T12:42:54.177Z,6.10
2019-03-06T12:45:23.701Z,4.37
2019-03-06T12:47:56.092Z,5.03
2019-03-06T12:50:25.720Z,4.80
2019-03-06T12:52:55.215Z,4.97
2019-03-06T12:55:24.818Z,4.80
2019-03-06T12:57:59.271Z,4.83
2019-03-06T13:00:25.771Z,6.43
2019-03-06T13:02:55.326Z,7.43
2019-03-06T13:05:25.074Z,5.37
2019-03-06T13:07:54.445Z,5.17
2019-03-06T13:10:24.178Z,4.90
2019-03-06T13:12:53.724Z,6.80
2019-03-06T13:15:24.130Z,6.70
2019-03-06T13:17:53.746Z,6.20
2019-03-06T13:20:24.088Z,5.90
2019-03-06T13:22:55.204Z,5.00
2019-03-06T13:25:25.086Z,5.67
2019-03-06T13:27:56.545Z,5.80
2019-03-06T13:30:27.483Z,5.57
2019-03-06T13:33:19.278Z,6.23
2019-03-06T13:35:49.481Z,5.47
2019-03-06T13:38:22.343Z,7.23
2019-03-06T13:40:51.918Z,4.47
2019-03-06T13:43:21.602Z,4.67
2019-03-06T13:45:51.497Z,4.57
2019-03-06T13:48:21.668Z,5.23
2019-03-06T13:50:51.217Z,4.87
2019-03-06T13:53:21.285Z,4.40
2019-03-06T13:55:51.028Z,4.60
2019-03-06T13:58:21.145Z,6.30
2019-03-06T14:00:50.468Z,5.03
2019-03-06T14:03:20.419Z,5.37
2019-03-06T14:05:49.797Z,4.93
2019-03-06T14:08:20.203Z,4.27
2019-03-06T14:10:49.913Z,3.80
2019-03-06T14:13:19.222Z,4.57
2019-03-06T14:15:53.898Z,4.27
2019-03-06T14:18:19.954Z,4.20
2019-03-06T14:20:49.623Z,4.83
2019-03-06T14:23:19.442Z,4.60
2019-03-06T14:25:49.057Z,4.50
2019-03-06T14:28:19.224Z,4.03
2019-03-06T14:30:49.853Z,6.10
2019-03-06T14:33:19.991Z,4.50
2019-03-06T14:35:50.229Z,3.67
2019-03-06T14:38:20.812Z,4.60
2019-03-06T14:40:50.528Z,3.50
2019-03-06T14:43:20.846Z,3.23
2019-03-06T14:45:51.257Z,4.03
2019-03-06T14:48:21.082Z,4.07
2019-03-06T14:50:51.213Z,3.40
2019-03-06T14:53:20.622Z,3.40
2019-03-06T14:55:50.112Z,3.40
2019-03-06T14:58:19.489Z,3.90
2019-03-06T15:00:48.828Z,3.77
2019-03-06T15:03:18.878Z,3.57
2019-03-06T15:05:48.652Z,3.37
2019-03-06T15:08:18.722Z,3.87
2019-03-06T15:10:48.488Z,7.80
2019-03-06T15:13:17.845Z,3.20
2019-03-06T15:15:47.589Z,2.70
2019-03-06T15:18:17.875Z,2.73
2019-03-06T15:20:47.375Z,2.93
2019-03-06T15:23:17.575Z,3.90
2019-03-06T15:25:47.238Z,3.27
2019-03-06T15:28:17.774Z,3.00
2019-03-06T15:30:49.653Z,3.30
2019-03-06T15:33:22.291Z,3.60
2019-03-06T15:35:52.285Z,3.20
2019-03-06T15:38:21.966Z,2.77
2019-03-06T15:40:52.189Z,3.03
2019-03-06T15:43:22.661Z,3.13
2019-03-06T15:45:52.264Z,2.90
2019-03-06T15:48:23.712Z,3.20
2019-03-06T15:50:53.821Z,3.30
2019-03-06T15:53:25.686Z,4.10
2019-03-06T15:55:55.319Z,5.73
2019-03-06T15:58:25.359Z,3.67
2019-03-06T16:00:54.851Z,3.50
2019-03-06T16:03:24.963Z,2.30
2019-03-06T16:05:57.541Z,2.50
2019-03-06T16:08:27.989Z,3.70
2019-03-06T16:10:57.495Z,4.70
2019-03-06T16:13:27.596Z,3.80
2019-03-06T16:15:57.638Z,2.40
2019-03-06T16:18:46.843Z,2.33
2019-03-06T16:21:16.180Z,4.77
2019-03-06T16:24:04.665Z,4.90
2019-03-06T16:26:34.168Z,4.10
2019-03-06T16:29:05.347Z,4.23
2019-03-06T16:31:35.217Z,2.47
2019-03-06T16:34:04.735Z,4.00
2019-03-06T16:36:34.519Z,3.73
2019-03-06T16:39:07.658Z,2.60
2019-03-06T16:41:38.952Z,3.23
2019-03-06T16:44:11.672Z,2.47
2019-03-06T16:47:06.610Z,3.30
2019-03-06T16:49:31.959Z,2.77
2019-03-06T16:52:02.095Z,5.10
2019-03-06T16:54:32.345Z,3.43
2019-03-06T16:57:02.065Z,2.77
2019-03-06T16:59:31.425Z,3.67
2019-03-06T17:02:02.351Z,3.73
2019-03-06T17:04:32.014Z,4.60
2019-03-06T17:07:01.426Z,3.13
2019-03-06T17:09:30.970Z,2.70
2019-03-06T17:12:00.417Z,2.87
2019-03-06T17:14:30.222Z,3.57
2019-03-06T17:16:59.570Z,3.17
2019-03-06T17:19:32.208Z,3.90
2019-03-06T17:22:01.690Z,4.70
2019-03-06T17:24:31.152Z,4.67
2019-03-06T17:27:00.921Z,3.43
2019-03-06T17:29:33.047Z,4.63
2019-03-06T17:32:03.684Z,6.60
2019-03-06T17:34:35.686Z,4.80
2019-03-06T17:37:05.451Z,2.80
2019-03-06T17:39:35.189Z,4.83
2019-03-06T17:42:05.095Z,5.00
2019-03-06T17:44:37.894Z,3.93
2019-03-06T17:47:07.346Z,4.20
2019-03-06T17:49:37.605Z,4.30
2019-03-06T17:52:07.496Z,5.60
2019-03-06T17:54:37.336Z,4.03
2019-03-06T17:57:06.910Z,4.73
2019-03-06T17:59:36.673Z,4.23
2019-03-06T18:02:26.491Z,5.20
2019-03-06T18:04:56.514Z,5.23
2019-03-06T18:07:26.207Z,6.73
2019-03-06T18:09:56.050Z,5.10
2019-03-06T18:12:28.656Z,5.20
2019-03-06T18:14:58.712Z,5.73
2019-03-06T18:17:28.252Z,4.90
2019-03-06T18:19:58.087Z,5.00
2019-03-06T18:22:27.825Z,4.30
2019-03-06T18:24:57.874Z,4.90
2019-03-06T18:27:27.185Z,4.57
2019-03-06T18:29:57.419Z,4.90
2019-03-06T18:32:26.752Z,5.20
2019-03-06T18:34:56.126Z,4.80
2019-03-06T18:37:25.532Z,5.17
2019-03-06T18:39:55.026Z,4.60
2019-03-06T18:42:24.814Z,7.13
2019-03-06T18:44:54.626Z,4.80
2019-03-06T18:47:24.517Z,4.53
2019-03-06T18:49:54.424Z,6.67
2019-03-06T18:52:24.126Z,5.67
2019-03-06T18:54:54.178Z,4.40
2019-03-06T18:57:23.878Z,5.77
2019-03-06T18:59:54.167Z,5.27
2019-03-06T19:02:23.948Z,4.60
2019-03-06T19:04:54.286Z,5.37
2019-03-06T19:07:23.762Z,4.93
2019-03-06T19:09:53.583Z,4.70
2019-03-06T19:12:22.945Z,4.87
2019-03-06T19:14:52.472Z,6.83
2019-03-06T19:17:21.998Z,5.10
2019-03-06T19:19:52.290Z,5.40
2019-03-06T19:22:21.648Z,6.77
2019-03-06T19:24:52.235Z,5.73
2019-03-06T19:27:23.083Z,5.57
2019-03-06T19:29:53.353Z,11.13
2019-03-06T19:32:23.711Z,6.40
2019-03-06T19:34:53.172Z,5.07
2019-03-06T19:37:23.031Z,4.23
2019-03-06T19:39:53.407Z,5.33
2019-03-06T19:42:23.399Z,4.83
2019-03-06T19:44:54.096Z,5.80
2019-03-06T19:47:24.408Z,5.40
2019-03-06T19:49:54.264Z,5.50
2019-03-06T19:52:24.274Z,6.00
2019-03-06T19:54:54.459Z,9.03
2019-03-06T19:57:24.164Z,6.30
2019-03-06T19:59:53.613Z,6.07
2019-03-06T20:02:42.400Z,4.80
2019-03-06T20:05:11.825Z,5.50
2019-03-06T20:07:41.513Z,5.77
2019-03-06T20:10:11.087Z,5.00
2019-03-06T20:12:41.520Z,5.90
2019-03-06T20:15:11.254Z,4.20
2019-03-06T20:17:41.165Z,5.23
2019-03-06T20:20:11.534Z,5.47
2019-03-06T20:22:41.034Z,5.80
2019-03-06T20:25:10.607Z,6.03
2019-03-06T20:27:40.520Z,5.93
2019-03-06T20:30:10.353Z,4.70
2019-03-06T20:32:40.028Z,4.73
2019-03-06T20:35:09.913Z,4.77
2019-03-06T20:37:40.123Z,4.37
2019-03-06T20:40:10.281Z,4.13
2019-03-06T20:42:40.267Z,7.37
2019-03-06T20:45:09.819Z,4.13
2019-03-06T20:47:39.188Z,4.20
2019-03-06T20:50:08.613Z,4.50
2019-03-06T20:52:37.946Z,3.43
2019-03-06T20:55:07.552Z,4.10
2019-03-06T20:57:38.023Z,4.00
2019-03-06T21:00:08.258Z,5.10
2019-03-06T21:02:38.226Z,6.30
2019-03-06T21:05:07.761Z,3.70
2019-03-06T21:07:44.966Z,3.90
2019-03-06T21:10:09.398Z,3.53
2019-03-06T21:12:38.742Z,4.33
2019-03-06T21:15:09.341Z,4.30
2019-03-06T21:17:39.044Z,3.90
2019-03-06T21:20:11.132Z,4.00
2019-03-06T21:22:40.891Z,4.13
2019-03-06T21:25:11.646Z,4.13
2019-03-06T21:27:41.164Z,4.07
2019-03-06T21:30:14.045Z,4.80
2019-03-06T21:32:43.858Z,4.20
2019-03-06T21:35:13.177Z,4.03
2019-03-06T21:37:42.931Z,3.70
2019-03-06T21:40:12.225Z,4.83
2019-03-06T21:42:41.557Z,4.37
2019-03-06T21:45:11.315Z,3.70
2019-03-06T21:47:41.042Z,4.80
2019-03-06T21:50:12.064Z,3.60
2019-03-06T21:52:42.115Z,3.90
2019-03-06T21:55:12.585Z,4.47
2019-03-06T21:57:41.901Z,3.80
2019-03-06T22:00:19.007Z,5.37
2019-03-06T22:02:48.746Z,3.77
2019-03-06T22:05:18.431Z,4.13
2019-03-06T22:07:50.305Z,4.43
2019-03-06T22:10:19.485Z,4.23
2019-03-06T22:12:49.452Z,3.87
2019-03-06T22:15:18.965Z,6.23
2019-03-06T22:17:48.647Z,6.07
2019-03-06T22:20:18.462Z,3.60
2019-03-06T22:22:48.143Z,3.87
2019-03-06T22:25:17.798Z,4.87
2019-03-06T22:27:47.589Z,4.00
2019-03-06T22:30:17.997Z,3.40
2019-03-06T22:32:47.905Z,3.03
2019-03-06T22:35:17.330Z,3.60
2019-03-06T22:37:47.109Z,3.33
2019-03-06T22:40:17.149Z,3.30
2019-03-06T22:42:46.849Z,5.20
2019-03-06T22:45:16.186Z,2.73
2019-03-06T22:47:45.910Z,2.37
2019-03-06T22:50:15.393Z,4.00
2019-03-06T22:52:45.166Z,2.93
2019-03-06T22:55:15.544Z,2.47
2019-03-06T22:57:45.257Z,2.70
2019-03-06T23:00:46.724Z,2.40
2019-03-06T23:03:16.468Z,2.80
2019-03-06T23:05:45.814Z,4.73
2019-03-06T23:08:15.132Z,2.77
2019-03-06T23:10:44.638Z,2.63
2019-03-06T23:13:13.966Z,3.13
2019-03-06T23:15:44.499Z,3.23
2019-03-06T23:18:13.793Z,3.73
2019-03-06T23:20:43.157Z,2.67
2019-03-06T23:23:12.847Z,5.07
2019-03-06T23:25:42.205Z,3.77
2019-03-06T23:28:12.054Z,2.23
2019-03-06T23:30:41.984Z,2.40
2019-03-06T23:33:11.513Z,3.30
2019-03-06T23:35:41.320Z,2.30
2019-03-06T23:38:11.113Z,2.20
2019-03-06T23:40:40.847Z,4.63
2019-03-06T23:43:10.210Z,2.93
2019-03-06T23:45:40.273Z,3.20
2019-03-06T23:48:10.457Z,2.67
2019-03-06T23:50:40.224Z,2.93
2019-03-06T23:53:11.649Z,2.80
2019-03-06T23:55:41.931Z,2.30
2019-03-06T23:58:11.402Z,2.77
